Time;durP1;ratioP1;P1;durP2;ratioP2;P2;SDS_P1;SDS_P2;PMS_P1;PMS_P2;Temp;Humidity;BMP_temperature;BMP_pressure;BME280_temperature;BME280_humidity;BME280_pressure;Samples;Min_cycle;Max_cycle;Signal;HPM_P1;HPM_P2
2022/12/09 00:02:14;;;;;;;4.28;2.75;;;16.30;60.30;;;;;;10444380;28;20071;-56
2022/12/09 00:07:14;;;;;;;3.65;2.50;;;16.20;60.20;;;;;;10449672;28;20528;-55
2022/12/09 00:12:15;;;;;;;3.10;2.13;;;16.20;60.20;;;;;;10439015;28;20543;-55
2022/12/09 00:17:15;;;;;;;3.50;2.42;;;16.20;60.30;;;;;;10452465;28;20056;-56
2022/12/09 00:22:16;;;;;;;3.30;2.17;;;16.30;60.20;;;;;;10447902;28;20064;-56
2022/12/09 00:27:17;;;;;;;2.47;1.83;;;16.30;60.10;;;;;;10438858;28;20025;-56
2022/12/09 00:32:17;;;;;;;3.97;2.75;;;16.30;60.10;;;;;;10451470;28;20033;-55
2022/12/09 00:37:18;;;;;;;3.97;2.38;;;16.30;59.90;;;;;;10424416;28;20105;-56
2022/12/09 00:42:19;;;;;;;3.28;2.38;;;16.30;59.90;;;;;;10443275;28;20112;-56
2022/12/09 00:47:19;;;;;;;3.97;2.65;;;16.30;59.90;;;;;;10451771;28;20045;-51
2022/12/09 00:52:20;;;;;;;2.50;2.00;;;16.30;59.80;;;;;;10447155;28;20057;-54
2022/12/09 00:57:21;;;;;;;3.53;2.03;;;16.30;59.80;;;;;;10437293;28;20055;-55
2022/12/09 01:02:21;;;;;;;3.60;2.33;;;16.30;59.80;;;;;;10447182;28;20059;-54
2022/12/09 01:07:22;;;;;;;3.75;2.38;;;16.30;59.60;;;;;;10432818;28;20021;-56
2022/12/09 01:12:23;;;;;;;4.55;2.53;;;16.30;59.60;;;;;;10437937;28;20033;-55
2022/12/09 01:17:24;;;;;;;4.13;2.08;;;16.30;59.70;;;;;;10438407;28;20017;-55
2022/12/09 01:22:24;;;;;;;3.53;2.08;;;16.30;59.60;;;;;;10442220;28;20032;-55
2022/12/09 01:27:28;;;;;;;3.38;2.17;;;16.30;59.40;;;;;;10414063;28;20028;-56
2022/12/09 01:32:28;;;;;;;4.18;2.35;;;16.30;59.50;;;;;;10441118;28;20445;-55
2022/12/09 01:37:31;;;;;;;5.05;2.40;;;16.30;59.50;;;;;;10448731;28;20016;-56
2022/12/09 01:42:33;;;;;;;4.00;2.60;;;16.40;59.40;;;;;;10431837;28;20029;-57
2022/12/09 01:47:33;;;;;;;3.22;2.53;;;16.30;59.40;;;;;;10448792;28;20041;-54
2022/12/09 01:52:34;;;;;;;5.30;2.92;;;16.30;59.40;;;;;;10431604;28;20045;-53
2022/12/09 01:57:36;;;;;;;3.17;2.38;;;16.30;59.30;;;;;;10448555;28;20043;-55
2022/12/09 02:02:38;;;;;;;4.30;2.83;;;16.30;59.30;;;;;;10448699;28;20029;-55
2022/12/09 02:07:38;;;;;;;3.13;1.80;;;16.30;59.30;;;;;;10448068;28;20552;-55
2022/12/09 02:13:36;;;;;;;3.58;2.08;;;16.30;59.30;;;;;;10448197;28;20123;-55
2022/12/09 02:18:58;;;;;;;3.05;2.15;;;16.30;59.20;;;;;;10441366;28;20681;-56
2022/12/09 02:24:38;;;;;;;3.88;2.38;;;16.30;59.20;;;;;;10435308;28;20048;-54
2022/12/09 02:30:10;;;;;;;3.60;2.33;;;16.30;59.10;;;;;;10447189;28;20029;-57
2022/12/09 02:35:22;;;;;;;3.47;2.25;;;16.30;59.10;;;;;;10434868;28;20028;-58
2022/12/09 02:40:57;;;;;;;3.85;2.47;;;16.30;59.10;;;;;;10437119;28;20544;-56
2022/12/09 02:45:59;;;;;;;3.53;2.15;;;16.30;59.00;;;;;;10446713;28;20049;-58
2022/12/09 02:51:04;;;;;;;4.00;3.15;;;16.30;59.10;;;;;;10427759;28;20025;-57
2022/12/09 02:56:07;;;;;;;5.93;3.20;;;16.30;59.00;;;;;;10414963;28;20467;-57
2022/12/09 03:01:47;;;;;;;3.38;2.10;;;16.30;58.90;;;;;;10400708;28;20029;-55
2022/12/09 03:06:52;;;;;;;3.10;2.40;;;16.30;58.80;;;;;;10423346;28;20071;-56
2022/12/09 03:11:57;;;;;;;3.92;3.00;;;16.30;58.90;;;;;;10440921;28;20464;-58
2022/12/09 03:17:12;;;;;;;4.13;2.50;;;16.30;58.80;;;;;;10444795;28;20017;-56
2022/12/09 03:22:21;;;;;;;3.70;2.30;;;16.30;58.80;;;;;;10441346;28;20402;-57
2022/12/09 03:27:32;;;;;;;3.23;2.00;;;16.30;58.70;;;;;;10445035;28;20383;-56
2022/12/09 03:32:33;;;;;;;3.40;2.30;;;16.30;58.50;;;;;;10440531;28;20033;-58
2022/12/09 03:37:37;;;;;;;3.08;1.80;;;16.30;58.60;;;;;;10438049;28;20378;-56
2022/12/09 03:42:53;;;;;;;3.38;2.20;;;16.30;58.50;;;;;;10446016;28;20032;-56
2022/12/09 03:47:54;;;;;;;3.83;2.90;;;16.30;58.50;;;;;;10428202;28;20416;-59
2022/12/09 03:53:17;;;;;;;4.13;2.90;;;16.30;58.50;;;;;;10453602;28;20034;-56
2022/12/09 03:58:18;;;;;;;3.30;2.42;;;16.30;58.50;;;;;;10414529;28;20021;-55
2022/12/09 04:03:20;;;;;;;3.92;2.20;;;16.30;58.40;;;;;;10421501;28;20033;-57
2022/12/09 04:08:21;;;;;;;4.07;2.13;;;16.30;58.50;;;;;;10416200;28;20021;-56
2022/12/09 04:13:21;;;;;;;4.00;2.05;;;16.30;58.50;;;;;;10421679;28;20104;-56
2022/12/09 04:18:22;;;;;;;3.90;2.60;;;16.30;58.30;;;;;;10425726;28;20017;-56
2022/12/09 04:23:23;;;;;;;3.75;2.00;;;16.30;58.30;;;;;;10438988;28;20086;-55
2022/12/09 04:28:23;;;;;;;3.63;2.35;;;16.30;58.30;;;;;;10452421;28;20032;-56
2022/12/09 04:33:25;;;;;;;3.60;2.45;;;16.30;58.30;;;;;;10424986;28;20037;-57
2022/12/09 04:38:26;;;;;;;3.42;2.33;;;16.30;58.20;;;;;;10450927;28;20024;-55
2022/12/09 04:43:27;;;;;;;3.97;2.55;;;16.30;58.30;;;;;;10440197;28;20690;-57
2022/12/09 04:48:28;;;;;;;3.65;2.50;;;16.30;58.20;;;;;;10444447;28;20056;-56
2022/12/09 04:53:29;;;;;;;3.45;2.50;;;16.30;58.20;;;;;;10428139;28;20420;-59
2022/12/09 04:58:30;;;;;;;3.65;2.63;;;16.30;58.10;;;;;;10431326;28;20029;-56
2022/12/09 05:03:30;;;;;;;3.78;2.08;;;16.30;58.10;;;;;;10414532;28;20491;-57
2022/12/09 05:08:31;;;;;;;3.28;2.25;;;16.30;58.10;;;;;;10429504;28;20038;-56
2022/12/09 05:13:32;;;;;;;3.85;2.00;;;16.30;58.10;;;;;;10430437;28;20041;-54
2022/12/09 05:18:33;;;;;;;3.30;2.30;;;16.30;58.10;;;;;;10434346;28;20565;-58
2022/12/09 05:23:34;;;;;;;2.90;1.92;;;16.30;58.10;;;;;;10432043;28;20138;-55
2022/12/09 05:28:35;;;;;;;2.83;2.03;;;16.30;58.10;;;;;;10427030;28;20509;-57
2022/12/09 05:33:36;;;;;;;2.70;1.98;;;16.30;58.10;;;;;;10433860;28;20095;-55
2022/12/09 05:38:37;;;;;;;2.95;2.10;;;16.30;58.00;;;;;;10424417;28;20492;-57
2022/12/09 05:43:38;;;;;;;4.45;2.80;;;16.30;58.00;;;;;;10445072;28;20041;-57
2022/12/09 05:48:39;;;;;;;3.03;2.10;;;16.30;58.10;;;;;;10433056;28;20845;-57
2022/12/09 05:53:40;;;;;;;3.35;1.85;;;16.30;58.10;;;;;;10433428;28;20029;-56
2022/12/09 05:58:41;;;;;;;4.93;2.85;;;16.30;58.30;;;;;;10439585;28;20035;-56
2022/12/09 06:03:42;;;;;;;11.70;3.17;;;16.30;58.70;;;;;;10427453;28;20094;-57
2022/12/09 06:08:44;;;;;;;8.60;3.30;;;16.40;59.30;;;;;;10413833;28;20044;-55
2022/12/09 06:13:46;;;;;;;7.80;3.42;;;16.40;60.10;;;;;;10439335;28;20036;-57
2022/12/09 06:18:48;;;;;;;7.15;3.42;;;16.40;60.60;;;;;;10420546;28;20021;-57
2022/12/09 06:23:49;;;;;;;10.15;3.60;;;16.50;61.20;;;;;;10440403;28;20020;-58
2022/12/09 06:28:51;;;;;;;8.52;3.85;;;16.60;61.00;;;;;;10423142;28;20032;-57
2022/12/09 06:33:52;;;;;;;8.88;3.25;;;16.50;62.00;;;;;;10441746;28;20059;-58
2022/12/09 06:38:55;;;;;;;9.93;3.25;;;16.50;63.00;;;;;;10425805;28;20017;-56
2022/12/09 06:43:57;;;;;;;14.40;3.33;;;16.30;62.40;;;;;;10429899;28;20400;-56
2022/12/09 06:48:58;;;;;;;10.13;3.40;;;16.20;62.60;;;;;;10436069;28;20055;-56
2022/12/09 06:53:58;;;;;;;10.15;3.40;;;16.10;62.50;;;;;;10429648;28;20030;-56
2022/12/09 06:59:05;;;;;;;7.18;3.28;;;16.00;63.90;;;;;;10420076;28;20095;-59
2022/12/09 07:04:06;;;;;;;13.73;4.30;;;16.10;62.90;;;;;;10438309;28;20024;-57
2022/12/09 07:09:09;;;;;;;9.45;4.38;;;16.00;62.80;;;;;;10414545;28;20052;-56
2022/12/09 07:14:10;;;;;;;19.27;4.85;;;15.80;63.70;;;;;;10426549;28;20100;-55
2022/12/09 07:19:19;;;;;;;20.40;6.22;;;15.90;63.70;;;;;;10423437;28;20021;-58
2022/12/09 07:24:19;;;;;;;15.98;5.13;;;15.90;62.60;;;;;;10438514;28;20047;-56
2022/12/09 07:29:20;;;;;;;15.25;4.88;;;15.90;62.90;;;;;;10439587;28;20029;-57
2022/12/09 07:34:21;;;;;;;21.10;5.60;;;15.80;63.50;;;;;;10443407;28;20116;-55
2022/12/09 07:39:21;;;;;;;14.38;4.57;;;15.70;63.30;;;;;;10442941;28;20104;-56
2022/12/09 07:44:26;;;;;;;16.55;5.00;;;15.70;63.50;;;;;;10444086;28;20575;-56
2022/12/09 07:49:27;;;;;;;15.75;6.88;;;15.80;63.10;;;;;;10439635;28;20031;-56
2022/12/09 07:54:28;;;;;;;10.40;3.90;;;15.70;63.10;;;;;;10418611;28;20024;-57
2022/12/09 07:59:28;;;;;;;15.38;4.60;;;15.70;63.00;;;;;;10443968;28;20021;-55
2022/12/09 08:04:30;;;;;;;11.07;4.88;;;15.70;62.70;;;;;;10426560;28;20028;-56
2022/12/09 08:09:31;;;;;;;9.43;4.30;;;15.70;63.10;;;;;;10430354;28;20040;-57
2022/12/09 08:14:31;;;;;;;10.43;3.80;;;15.80;62.60;;;;;;10433937;28;20056;-56
2022/12/09 08:19:32;;;;;;;14.13;4.70;;;15.80;62.40;;;;;;10444721;28;20025;-55
2022/12/09 08:24:33;;;;;;;8.40;3.22;;;15.80;62.40;;;;;;10432175;28;20025;-56
2022/12/09 08:29:33;;;;;;;9.38;3.80;;;15.70;62.40;;;;;;10451981;28;20468;-56
2022/12/09 08:34:34;;;;;;;9.38;3.33;;;15.80;62.20;;;;;;10452180;28;20113;-56
2022/12/09 08:39:35;;;;;;;8.65;3.42;;;15.80;62.30;;;;;;10442825;28;20104;-56
2022/12/09 08:44:37;;;;;;;8.60;4.28;;;15.80;62.10;;;;;;10431623;28;20134;-56
2022/12/09 08:49:37;;;;;;;8.77;3.20;;;15.90;61.90;;;;;;10438033;28;20029;-53
2022/12/09 08:54:38;;;;;;;9.73;3.67;;;15.90;61.90;;;;;;10451112;28;20583;-55
2022/12/09 08:59:39;;;;;;;11.15;4.10;;;15.90;61.80;;;;;;10422110;28;20056;-56
2022/12/09 09:04:39;;;;;;;14.02;4.70;;;15.90;62.00;;;;;;10446043;28;20123;-53
2022/12/09 09:09:40;;;;;;;6.63;3.20;;;15.80;62.00;;;;;;10431483;28;20114;-56
2022/12/09 09:14:41;;;;;;;8.73;3.53;;;15.90;62.20;;;;;;10441476;28;20104;-57
2022/12/09 09:19:41;;;;;;;14.90;4.75;;;15.90;65.30;;;;;;10443964;28;20102;-57
2022/12/09 09:24:42;;;;;;;13.25;4.85;;;15.90;66.70;;;;;;10433785;28;20084;-56
2022/12/09 09:29:43;;;;;;;15.65;5.15;;;16.00;66.50;;;;;;10433457;28;20119;-57
2022/12/09 09:34:44;;;;;;;14.57;5.00;;;16.10;66.20;;;;;;10432136;28;20063;-56
2022/12/09 09:39:45;;;;;;;11.25;3.17;;;16.40;65.30;;;;;;10442665;28;20033;-55
2022/12/09 09:44:49;;;;;;;8.95;3.22;;;16.60;63.50;;;;;;10443376;28;20455;-56
2022/12/09 09:50:06;;;;;;;10.48;3.72;;;16.70;62.40;;;;;;10432628;28;20028;-55
2022/12/09 09:55:31;;;;;;;14.70;4.30;;;16.90;61.90;;;;;;10428453;28;20029;-56
2022/12/09 10:01:05;;;;;;;13.18;5.03;;;16.90;62.00;;;;;;10415065;28;20105;-57
2022/12/09 10:06:28;;;;;;;13.23;4.20;;;17.10;62.30;;;;;;10429270;28;20044;-56
2022/12/09 10:11:56;;;;;;;11.25;3.75;;;17.20;61.90;;;;;;10430836;28;20034;-57
2022/12/09 10:17:51;;;;;;;10.43;4.57;;;17.30;61.70;;;;;;10425675;28;20017;-56
2022/12/09 10:23:01;;;;;;;15.25;4.25;;;17.40;61.90;;;;;;10442501;28;20966;-56
2022/12/09 10:28:15;;;;;;;9.10;4.03;;;17.40;61.30;;;;;;10439128;28;20131;-57
2022/12/09 10:33:18;;;;;;;10.27;3.60;;;17.40;61.00;;;;;;10446462;28;20040;-56
2022/12/09 10:38:20;;;;;;;13.10;4.32;;;17.40;61.10;;;;;;10443391;28;20542;-55
2022/12/09 10:43:38;;;;;;;10.57;3.88;;;17.40;61.40;;;;;;10420283;28;20487;-56
2022/12/09 10:48:49;;;;;;;16.60;3.92;;;17.50;61.40;;;;;;10427586;28;20111;-54
2022/12/09 10:54:04;;;;;;;13.60;3.70;;;17.50;61.20;;;;;;10435422;28;20033;-56
2022/12/09 10:59:12;;;;;;;14.35;3.42;;;17.60;61.80;;;;;;10450920;28;20384;-55
2022/12/09 11:04:12;;;;;;;11.98;3.00;;;17.70;61.00;;;;;;10434647;28;20123;-56
2022/12/09 11:09:32;;;;;;;17.13;5.70;;;17.60;61.40;;;;;;10444672;28;20037;-55
2022/12/09 11:14:39;;;;;;;16.90;3.92;;;17.60;62.80;;;;;;10445687;28;20029;-56
2022/12/09 11:19:42;;;;;;;13.68;3.42;;;17.60;63.00;;;;;;10447756;28;20079;-56
2022/12/09 11:24:43;;;;;;;13.35;4.07;;;17.70;63.10;;;;;;10423159;28;20589;-56
2022/12/09 11:29:43;;;;;;;9.07;3.15;;;17.60;62.90;;;;;;10435771;28;20039;-56
2022/12/09 11:34:45;;;;;;;7.13;3.80;;;17.60;62.80;;;;;;10422970;28;20049;-56
2022/12/09 11:39:51;;;;;;;12.50;3.47;;;17.60;62.90;;;;;;10443073;28;20013;-56
2022/12/09 11:45:05;;;;;;;9.20;2.63;;;17.70;62.70;;;;;;10426062;28;20503;-56
2022/12/09 11:50:21;;;;;;;8.63;3.25;;;17.70;62.70;;;;;;10403626;28;20120;-55
2022/12/09 11:55:26;;;;;;;11.55;3.22;;;17.70;62.30;;;;;;10414164;28;20568;-56
2022/12/09 12:00:50;;;;;;;11.35;2.75;;;17.70;62.50;;;;;;10409710;28;20056;-56
2022/12/09 12:05:53;;;;;;;9.57;3.30;;;17.70;62.20;;;;;;10415887;28;20032;-56
2022/12/09 12:11:08;;;;;;;12.00;3.15;;;17.60;62.30;;;;;;10431798;28;20108;-55
2022/12/09 12:16:25;;;;;;;7.18;3.55;;;17.60;62.30;;;;;;10413361;28;20021;-55
2022/12/09 12:22:00;;;;;;;10.27;3.05;;;17.70;62.40;;;;;;10432740;28;20057;-53
2022/12/09 12:27:40;;;;;;;9.05;3.60;;;17.60;62.50;;;;;;10431524;28;20017;-54
2022/12/09 12:33:02;;;;;;;10.73;3.83;;;17.60;63.30;;;;;;10434118;28;20036;-57
2022/12/09 12:38:50;;;;;;;13.98;4.30;;;17.70;63.90;;;;;;10430592;28;20457;-55
2022/12/09 12:50:23;;;;;;;8.30;2.63;;;17.60;63.90;;;;;;10443990;28;20119;-57
2022/12/09 12:55:51;;;;;;;6.53;2.60;;;17.60;64.10;;;;;;10442934;28;20033;-58
2022/12/09 13:01:18;;;;;;;6.22;2.80;;;17.50;63.80;;;;;;10451294;28;20028;-56
2022/12/09 13:06:32;;;;;;;9.02;3.08;;;17.50;63.90;;;;;;10450036;28;20490;-56
2022/12/09 13:12:52;;;;;;;8.95;3.13;;;17.50;63.80;;;;;;10423472;28;20590;-56
2022/12/09 13:17:47;;;;;;;13.65;3.05;;;17.40;63.60;;;;;;10446408;28;20033;-57
2022/12/09 13:23:05;;;;;;;16.23;4.07;;;17.30;63.70;;;;;;10423187;28;20013;-56
2022/12/09 13:28:19;;;;;;;9.18;4.25;;;17.40;64.10;;;;;;10420211;28;20034;-55
2022/12/09 13:33:54;;;;;;;7.43;3.67;;;17.50;63.90;;;;;;10438016;28;20029;-55
2022/12/09 13:38:54;;;;;;;17.48;3.95;;;17.60;63.90;;;;;;10459194;28;20025;-57
2022/12/09 13:44:11;;;;;;;9.68;3.72;;;17.60;63.70;;;;;;10442775;28;20455;-57
2022/12/09 13:49:28;;;;;;;11.70;3.08;;;17.60;64.30;;;;;;10459681;28;20033;-53
2022/12/09 13:54:28;;;;;;;11.05;4.00;;;17.60;63.80;;;;;;10445071;28;20071;-56
2022/12/09 13:59:46;;;;;;;10.93;3.75;;;17.60;63.70;;;;;;10425235;28;20025;-55
2022/12/09 14:05:07;;;;;;;11.52;3.88;;;17.60;63.90;;;;;;10438607;28;20041;-55
2022/12/09 14:10:37;;;;;;;11.60;4.90;;;17.60;64.30;;;;;;10441158;28;20487;-55
2022/12/09 14:15:38;;;;;;;7.35;3.55;;;17.50;65.00;;;;;;10441345;28;20070;-55
2022/12/09 14:20:39;;;;;;;8.73;4.45;;;17.40;65.30;;;;;;10444191;28;20032;-56
2022/12/09 14:25:57;;;;;;;13.98;4.40;;;17.30;65.40;;;;;;10421705;28;20030;-56
2022/12/09 14:30:59;;;;;;;12.35;4.60;;;17.30;65.70;;;;;;10445270;28;20025;-56
2022/12/09 14:36:20;;;;;;;14.57;5.43;;;17.40;65.60;;;;;;10446381;28;20075;-56
2022/12/09 14:41:26;;;;;;;17.55;5.28;;;17.30;65.40;;;;;;10428606;28;20049;-55
2022/12/09 14:46:36;;;;;;;18.10;6.07;;;17.20;65.40;;;;;;10435026;28;20045;-57
2022/12/09 14:51:56;;;;;;;19.25;6.70;;;17.30;65.20;;;;;;10442334;28;20029;-56
2022/12/09 14:57:00;;;;;;;12.30;4.30;;;17.30;64.90;;;;;;10432975;28;20048;-57
2022/12/09 15:02:18;;;;;;;21.27;5.95;;;17.30;64.70;;;;;;10427399;28;20027;-57
2022/12/09 15:07:21;;;;;;;22.08;5.57;;;17.30;64.90;;;;;;10427256;28;20013;-56
2022/12/09 15:12:50;;;;;;;21.33;6.10;;;17.30;64.70;;;;;;10448937;28;20033;-58
2022/12/09 15:18:25;;;;;;;22.08;5.45;;;17.20;64.70;;;;;;10425628;28;20021;-56
2022/12/09 15:23:31;;;;;;;31.05;7.05;;;17.20;64.40;;;;;;10447553;28;20037;-57
2022/12/09 15:28:36;;;;;;;18.13;5.85;;;17.30;64.80;;;;;;10430563;28;20009;-57
2022/12/09 15:33:48;;;;;;;17.45;5.55;;;17.30;65.00;;;;;;10425158;28;20074;-55
2022/12/09 15:39:03;;;;;;;16.52;4.93;;;17.40;65.10;;;;;;10431506;28;20020;-57
2022/12/09 15:44:11;;;;;;;29.05;6.30;;;17.40;65.20;;;;;;10446441;28;20042;-57
2022/12/09 15:49:19;;;;;;;22.35;7.30;;;17.30;65.60;;;;;;10427813;28;20021;-57
2022/12/09 15:54:28;;;;;;;22.92;6.05;;;17.30;65.80;;;;;;10425934;28;20013;-54
2022/12/09 15:59:42;;;;;;;27.15;7.97;;;17.30;65.80;;;;;;10450214;28;20021;-54
2022/12/09 16:04:47;;;;;;;22.67;9.13;;;17.20;66.10;;;;;;10431906;28;20029;-54
2022/12/09 16:10:11;;;;;;;22.27;6.05;;;17.20;65.70;;;;;;10432213;28;20036;-56
2022/12/09 16:15:33;;;;;;;17.08;5.75;;;17.00;65.80;;;;;;10437969;28;20036;-56
2022/12/09 16:20:36;;;;;;;24.95;5.93;;;16.90;66.20;;;;;;10447763;28;20028;-55
2022/12/09 16:25:48;;;;;;;25.08;6.00;;;16.90;66.10;;;;;;10428687;28;20017;-54
2022/12/09 16:30:51;;;;;;;18.80;6.95;;;16.90;66.00;;;;;;10430993;28;20037;-53
2022/12/09 16:36:03;;;;;;;13.75;6.35;;;16.90;66.00;;;;;;10435919;28;20079;-56
2022/12/09 16:41:09;;;;;;;18.67;6.63;;;16.80;64.90;;;;;;10438328;28;20031;-55
2022/12/09 16:46:13;;;;;;;12.63;7.00;;;16.70;64.30;;;;;;10440735;28;20076;-55
2022/12/09 16:51:18;;;;;;;81.93;47.60;;;16.90;64.20;;;;;;10449466;28;20033;-55
2022/12/09 16:56:28;;;;;;;64.95;36.08;;;17.10;64.40;;;;;;10448581;28;20025;-55
2022/12/09 17:01:34;;;;;;;55.97;34.58;;;17.10;60.90;;;;;;10449056;28;20035;-53
2022/12/09 17:06:34;;;;;;;60.67;36.53;;;17.40;59.40;;;;;;10447828;28;20017;-56
2022/12/09 17:11:35;;;;;;;53.70;31.38;;;17.40;58.60;;;;;;10439804;28;20041;-54
2022/12/09 17:16:36;;;;;;;50.72;27.23;;;17.20;61.60;;;;;;10435653;28;20112;-54
2022/12/09 17:21:37;;;;;;;52.95;27.23;;;17.60;62.90;;;;;;10441096;28;20026;-55
2022/12/09 17:26:37;;;;;;;59.17;36.50;;;17.80;63.00;;;;;;10443721;28;20025;-53
2022/12/09 17:31:38;;;;;;;203.80;125.72;;;18.00;62.10;;;;;;10445602;28;20543;-55
2022/12/09 17:36:39;;;;;;;192.60;116.90;;;18.00;61.80;;;;;;10437875;28;20515;-55
2022/12/09 17:41:41;;;;;;;146.52;95.82;;;17.90;60.30;;;;;;10421132;28;20373;-55
2022/12/09 17:46:42;;;;;;;133.73;84.07;;;17.60;59.30;;;;;;10431294;28;20132;-58
2022/12/09 17:51:43;;;;;;;123.28;72.35;;;17.70;58.40;;;;;;10444856;28;20064;-56
2022/12/09 17:56:45;;;;;;;111.05;65.10;;;17.80;57.50;;;;;;10429244;28;20380;-56
2022/12/09 18:01:46;;;;;;;104.32;60.80;;;17.80;57.10;;;;;;10445492;28;20021;-54
2022/12/09 18:06:46;;;;;;;103.65;59.45;;;17.90;56.90;;;;;;10430313;28;20030;-55
2022/12/09 18:11:47;;;;;;;95.05;56.92;;;17.90;57.10;;;;;;10444351;28;20057;-56
2022/12/09 18:16:48;;;;;;;89.55;54.33;;;17.70;57.40;;;;;;10444503;28;20025;-55
2022/12/09 18:21:49;;;;;;;78.72;50.88;;;17.60;58.00;;;;;;10447339;28;20656;-54
2022/12/09 18:26:50;;;;;;;82.35;51.72;;;17.30;58.50;;;;;;10420592;28;20112;-57
2022/12/09 18:31:55;;;;;;;82.95;49.65;;;17.20;59.00;;;;;;10441081;28;20570;-54
2022/12/09 18:36:56;;;;;;;68.32;43.47;;;17.10;59.30;;;;;;10426421;28;20548;-57
2022/12/09 18:41:56;;;;;;;75.57;44.17;;;16.90;59.90;;;;;;10442817;28;20021;-56
2022/12/09 18:46:58;;;;;;;69.68;43.00;;;16.70;60.40;;;;;;10446680;28;20686;-58
2022/12/09 18:51:59;;;;;;;66.95;42.22;;;16.70;60.60;;;;;;10443998;28;20025;-56
2022/12/09 18:57:00;;;;;;;62.42;40.10;;;16.50;60.90;;;;;;10444848;28;20099;-57
2022/12/09 19:02:01;;;;;;;61.88;39.72;;;16.50;60.80;;;;;;10432418;28;20025;-57
2022/12/09 19:07:02;;;;;;;61.47;36.17;;;16.40;60.80;;;;;;10424201;28;20029;-56
2022/12/09 19:12:04;;;;;;;55.03;36.25;;;16.40;60.70;;;;;;10431545;28;20048;-56
2022/12/09 19:17:05;;;;;;;54.92;35.85;;;16.30;62.20;;;;;;10452555;28;20040;-55
2022/12/09 19:22:07;;;;;;;53.20;32.60;;;16.20;61.60;;;;;;10444919;28;20025;-56
2022/12/09 19:27:08;;;;;;;52.17;33.00;;;16.10;61.70;;;;;;10440776;28;20031;-55
2022/12/09 19:32:08;;;;;;;52.83;31.88;;;16.00;61.80;;;;;;10436181;28;20075;-55
2022/12/09 19:37:09;;;;;;;47.90;30.42;;;16.00;61.70;;;;;;10441896;28;20159;-56
2022/12/09 19:42:10;;;;;;;48.25;29.58;;;15.90;61.60;;;;;;10440775;28;20025;-56
2022/12/09 19:47:10;;;;;;;46.08;29.60;;;15.90;61.80;;;;;;10440927;28;20051;-55
2022/12/09 19:52:12;;;;;;;46.63;28.65;;;15.80;62.00;;;;;;10438240;28;20137;-56
2022/12/09 19:57:12;;;;;;;39.13;27.00;;;15.70;61.90;;;;;;10439524;28;20718;-55
2022/12/09 20:02:13;;;;;;;44.33;27.35;;;15.70;61.90;;;;;;10438681;28;20025;-56
2022/12/09 20:07:14;;;;;;;42.88;26.48;;;15.70;62.30;;;;;;10437948;28;20735;-54
2022/12/09 20:12:15;;;;;;;45.03;27.10;;;15.60;62.50;;;;;;10440110;28;20041;-55
2022/12/09 20:17:16;;;;;;;37.35;25.20;;;15.60;62.50;;;;;;10440542;28;20024;-56
2022/12/09 20:22:16;;;;;;;43.05;26.85;;;15.50;62.30;;;;;;10437726;28;20116;-55
2022/12/09 20:27:19;;;;;;;38.75;25.38;;;15.50;61.80;;;;;;10429437;28;20035;-54
2022/12/09 20:32:20;;;;;;;35.95;25.98;;;15.50;62.70;;;;;;10426134;28;20105;-56
2022/12/09 20:37:21;;;;;;;38.40;23.60;;;15.50;62.20;;;;;;10424279;28;20014;-55
2022/12/09 20:42:22;;;;;;;35.13;26.48;;;15.60;62.80;;;;;;10420942;28;20025;-56
2022/12/09 20:47:22;;;;;;;34.75;23.05;;;15.60;62.20;;;;;;10438834;28;20056;-55
2022/12/09 20:52:23;;;;;;;34.35;23.20;;;15.70;62.00;;;;;;10444917;28;20108;-54
2022/12/09 20:57:24;;;;;;;31.20;21.60;;;15.60;61.80;;;;;;10443012;28;20017;-55
2022/12/09 21:02:24;;;;;;;32.50;22.67;;;15.70;61.80;;;;;;10444321;28;20070;-54
2022/12/09 21:07:25;;;;;;;33.38;21.13;;;15.70;61.60;;;;;;10441070;28;20105;-55
2022/12/09 21:12:26;;;;;;;30.75;21.17;;;15.80;61.70;;;;;;10436076;28;20111;-54
2022/12/09 21:17:26;;;;;;;33.42;20.98;;;15.80;61.30;;;;;;10437097;28;20509;-55
2022/12/09 21:22:30;;;;;;;27.05;19.90;;;15.90;61.10;;;;;;10460269;28;20036;-55
2022/12/09 21:27:30;;;;;;;27.85;18.35;;;15.80;61.20;;;;;;10437378;28;20024;-55
2022/12/09 21:32:32;;;;;;;29.27;19.85;;;15.90;61.20;;;;;;10449873;28;20128;-55
2022/12/09 21:37:35;;;;;;;27.10;18.85;;;15.90;60.90;;;;;;10415948;28;20032;-54
2022/12/09 21:42:36;;;;;;;29.17;18.70;;;15.90;60.80;;;;;;10414306;28;20029;-57
2022/12/09 21:47:38;;;;;;;25.10;17.65;;;15.90;60.60;;;;;;10430879;28;20041;-54
2022/12/09 21:52:39;;;;;;;27.13;17.85;;;16.00;60.50;;;;;;10426054;28;20038;-56
2022/12/09 21:57:39;;;;;;;29.17;17.60;;;16.10;60.20;;;;;;10429232;28;20092;-55
2022/12/09 22:02:42;;;;;;;27.15;17.05;;;16.10;59.90;;;;;;10436637;28;20115;-55
2022/12/09 22:07:46;;;;;;;26.23;15.93;;;16.10;60.00;;;;;;10448914;28;20028;-55
2022/12/09 22:12:46;;;;;;;25.98;17.52;;;16.10;60.00;;;;;;10449599;28;20377;-56
2022/12/09 22:17:47;;;;;;;23.98;14.93;;;16.10;60.00;;;;;;10442472;28;20032;-55
2022/12/09 22:22:48;;;;;;;23.00;15.95;;;16.10;59.80;;;;;;10439279;28;20124;-55
2022/12/09 22:27:49;;;;;;;23.48;15.60;;;16.20;59.80;;;;;;10431623;28;20104;-54
2022/12/09 22:32:49;;;;;;;27.70;15.75;;;16.20;59.70;;;;;;10447542;28;20111;-55
2022/12/09 22:37:50;;;;;;;21.27;15.05;;;16.10;59.70;;;;;;10447147;28;20017;-54
2022/12/09 22:42:51;;;;;;;21.95;14.50;;;16.20;59.60;;;;;;10448431;28;20163;-55
2022/12/09 22:47:53;;;;;;;20.08;15.13;;;16.20;59.60;;;;;;10433441;28;20094;-54
2022/12/09 22:52:54;;;;;;;22.40;15.52;;;16.20;59.50;;;;;;10429513;28;20100;-53
2022/12/09 22:57:55;;;;;;;18.67;13.40;;;16.20;59.60;;;;;;10432669;28;20021;-55
2022/12/09 23:02:56;;;;;;;20.85;14.27;;;16.10;59.70;;;;;;10401765;28;20030;-56
2022/12/09 23:07:56;;;;;;;21.70;14.27;;;16.20;59.60;;;;;;10432657;28;20135;-56
2022/12/09 23:12:57;;;;;;;18.27;13.02;;;16.10;59.70;;;;;;10446164;28;20104;-53
2022/12/09 23:17:58;;;;;;;17.77;13.05;;;16.10;59.70;;;;;;10438888;28;20119;-54
2022/12/09 23:22:59;;;;;;;18.50;11.85;;;16.10;59.70;;;;;;10435489;28;20022;-55
2022/12/09 23:27:59;;;;;;;17.65;12.73;;;16.10;59.80;;;;;;10440360;28;20119;-55
2022/12/09 23:33:00;;;;;;;19.48;13.35;;;16.10;59.60;;;;;;10446827;28;20067;-55
2022/12/09 23:38:01;;;;;;;14.73;11.75;;;16.10;59.50;;;;;;10433491;28;20113;-55
2022/12/09 23:43:01;;;;;;;22.42;13.30;;;16.10;59.60;;;;;;10446694;28;20059;-54
2022/12/09 23:48:02;;;;;;;16.23;11.27;;;16.10;59.50;;;;;;10432498;28;20076;-55
2022/12/09 23:53:03;;;;;;;20.90;12.77;;;16.10;59.40;;;;;;10440491;28;20041;-55
2022/12/09 23:58:03;;;;;;;15.27;12.02;;;16.10;59.30;;;;;;10448659;28;20506;-54
